Time;durP1;ratioP1;P1;durP2;ratioP2;P2;SDS_P1;SDS_P2;PMS_P1;PMS_P2;Temp;Humidity;BMP_temperature;BMP_pressure;BME280_temperature;BME280_humidity;BME280_pressure;Samples;Min_cycle;Max_cycle;Signal;HPM_P1;HPM_P2
2023/06/10 00:02:28;;;;;;;6.75;3.67;;;17.80;91.00;;;;;;6122395;23;20393;-71
2023/06/10 00:05:16;;;;;;;7.75;3.53;;;17.80;91.40;;;;;;6121227;23;20089;-71
2023/06/10 00:08:08;;;;;;;5.50;3.50;;;17.70;91.50;;;;;;6120839;23;20006;-70
2023/06/10 00:10:54;;;;;;;7.50;3.83;;;17.60;91.60;;;;;;6122613;23;20010;-70
2023/06/10 00:13:40;;;;;;;9.18;3.55;;;17.60;92.00;;;;;;6122287;23;20033;-71
2023/06/10 00:16:26;;;;;;;8.32;3.45;;;17.60;92.00;;;;;;6120905;23;20014;-73
2023/06/10 00:19:15;;;;;;;6.78;4.35;;;17.60;92.00;;;;;;6124576;23;20053;-73
2023/06/10 00:22:01;;;;;;;6.22;3.80;;;17.60;92.20;;;;;;6120802;23;20405;-70
2023/06/10 00:24:47;;;;;;;7.05;3.58;;;17.50;92.10;;;;;;6124426;23;20105;-72
2023/06/10 00:27:35;;;;;;;9.48;3.88;;;17.50;92.40;;;;;;6122027;23;20014;-70
2023/06/10 00:30:21;;;;;;;9.38;4.60;;;17.50;92.60;;;;;;6120093;23;20014;-71
2023/06/10 00:33:07;;;;;;;10.73;4.03;;;17.50;92.50;;;;;;6122698;23;20018;-70
2023/06/10 00:35:54;;;;;;;8.38;4.00;;;17.50;92.60;;;;;;6120915;23;20033;-71
2023/06/10 00:38:40;;;;;;;7.90;3.97;;;17.40;92.70;;;;;;6120291;23;20020;-73
2023/06/10 00:41:27;;;;;;;9.70;4.68;;;17.40;92.70;;;;;;6122180;23;20364;-72
2023/06/10 00:44:13;;;;;;;7.13;3.75;;;17.50;92.90;;;;;;6123179;23;20122;-73
2023/06/10 00:46:59;;;;;;;7.30;3.90;;;17.40;92.90;;;;;;6121020;23;20010;-74
2023/06/10 00:49:45;;;;;;;9.30;3.67;;;17.40;92.90;;;;;;6124304;23;20403;-73
2023/06/10 00:52:31;;;;;;;8.23;4.00;;;17.40;93.10;;;;;;6121412;23;20496;-73
2023/06/10 00:55:18;;;;;;;9.10;3.97;;;17.30;93.10;;;;;;6122142;23;20124;-71
2023/06/10 00:58:04;;;;;;;9.65;3.72;;;17.30;93.30;;;;;;6121338;23;20129;-72
2023/06/10 01:00:51;;;;;;;8.65;4.05;;;17.30;93.40;;;;;;6121430;23;20065;-73
2023/06/10 01:03:38;;;;;;;10.02;4.13;;;17.30;93.50;;;;;;6123457;23;20016;-72
2023/06/10 01:06:47;;;;;;;12.20;4.13;;;17.30;93.70;;;;;;6100581;23;20014;-72
2023/06/10 01:10:07;;;;;;;9.25;4.10;;;17.20;93.70;;;;;;6121989;23;20021;-71
2023/06/10 01:13:11;;;;;;;6.03;3.10;;;17.30;93.80;;;;;;6123519;23;20483;-71
2023/06/10 01:15:58;;;;;;;8.60;3.55;;;17.20;93.80;;;;;;6122979;23;20093;-71
2023/06/10 01:18:44;;;;;;;7.15;4.05;;;17.20;93.80;;;;;;6122272;23;20020;-71
2023/06/10 01:21:30;;;;;;;9.20;3.90;;;17.20;93.90;;;;;;6119545;23;20033;-70
2023/06/10 01:24:19;;;;;;;19.33;4.38;;;17.20;94.30;;;;;;6121912;23;20133;-71
2023/06/10 01:27:13;;;;;;;7.30;3.70;;;17.20;94.20;;;;;;6121881;23;20601;-71
2023/06/10 01:30:05;;;;;;;7.57;3.65;;;17.10;94.30;;;;;;6120104;23;20006;-73
2023/06/10 01:32:52;;;;;;;11.50;3.85;;;17.10;94.50;;;;;;6121887;23;20020;-71
2023/06/10 01:35:39;;;;;;;8.68;4.15;;;17.10;94.50;;;;;;6120541;23;20014;-71
2023/06/10 01:38:26;;;;;;;8.55;4.13;;;17.00;94.50;;;;;;6122404;23;20020;-71
2023/06/10 01:41:15;;;;;;;12.65;4.38;;;17.10;94.60;;;;;;6122501;23;20021;-72
2023/06/10 01:44:02;;;;;;;8.00;3.58;;;17.10;94.70;;;;;;6122157;23;20036;-74
2023/06/10 01:46:48;;;;;;;9.15;3.55;;;17.00;94.70;;;;;;6118924;23;20021;-72
2023/06/10 01:49:34;;;;;;;7.10;3.80;;;17.00;94.80;;;;;;6123096;23;20610;-71
2023/06/10 01:52:20;;;;;;;7.30;3.85;;;17.10;94.80;;;;;;6123464;23;20010;-73
2023/06/10 01:55:07;;;;;;;8.80;3.85;;;17.00;94.80;;;;;;6123049;23;20014;-73
2023/06/10 01:57:52;;;;;;;8.57;4.30;;;17.00;94.90;;;;;;6123525;23;20171;-72
2023/06/10 02:00:38;;;;;;;11.15;3.83;;;17.00;95.10;;;;;;6124724;23;20014;-72
2023/06/10 02:03:24;;;;;;;7.40;4.30;;;16.90;95.10;;;;;;6123454;23;20116;-72
2023/06/10 02:06:10;;;;;;;8.48;4.00;;;16.90;95.20;;;;;;6123424;23;20491;-72
2023/06/10 02:08:56;;;;;;;6.47;3.40;;;16.90;95.30;;;;;;6122440;23;20455;-72
2023/06/10 02:11:42;;;;;;;10.50;4.15;;;16.90;95.30;;;;;;6123195;23;20467;-73
2023/06/10 02:14:28;;;;;;;7.35;3.75;;;16.90;95.50;;;;;;6125092;23;20574;-73
2023/06/10 02:17:14;;;;;;;7.30;4.32;;;16.90;95.50;;;;;;6123038;23;20009;-73
2023/06/10 02:20:04;;;;;;;7.93;3.97;;;16.90;95.60;;;;;;6123472;23;20014;-73
2023/06/10 02:22:50;;;;;;;7.30;4.10;;;16.80;95.70;;;;;;6124297;23;20021;-72
2023/06/10 02:25:35;;;;;;;8.25;3.85;;;16.80;95.70;;;;;;6122566;23;20437;-73
2023/06/10 02:28:21;;;;;;;7.78;3.78;;;16.80;95.70;;;;;;6123208;23;20036;-73
2023/06/10 02:31:08;;;;;;;15.23;4.07;;;16.80;95.80;;;;;;6124282;23;20352;-73
2023/06/10 02:33:54;;;;;;;7.97;4.00;;;16.80;95.90;;;;;;6123342;23;20527;-74
2023/06/10 02:36:40;;;;;;;7.60;3.78;;;16.80;95.90;;;;;;6122008;23;20428;-71
2023/06/10 02:39:26;;;;;;;8.18;4.47;;;16.80;96.00;;;;;;6122877;23;20032;-72
2023/06/10 02:42:12;;;;;;;10.07;4.93;;;16.80;96.00;;;;;;6122130;23;20022;-73
2023/06/10 02:44:58;;;;;;;6.95;3.60;;;16.80;96.10;;;;;;6122095;23;20105;-72
2023/06/10 02:47:44;;;;;;;7.35;3.78;;;16.70;96.20;;;;;;6124529;23;20012;-73
2023/06/10 02:50:30;;;;;;;7.05;3.45;;;16.70;96.50;;;;;;6121632;23;20014;-73
2023/06/10 02:53:16;;;;;;;8.10;4.30;;;16.60;96.50;;;;;;6122570;23;20022;-74
2023/06/10 02:56:02;;;;;;;11.20;4.07;;;16.60;96.60;;;;;;6122211;23;20014;-73
2023/06/10 02:58:48;;;;;;;7.93;3.83;;;16.60;96.80;;;;;;6124017;23;20101;-74
2023/06/10 03:01:36;;;;;;;7.57;3.95;;;16.50;96.70;;;;;;6122739;23;20032;-74
2023/06/10 03:04:23;;;;;;;7.72;3.95;;;16.50;96.70;;;;;;6123976;23;20010;-73
2023/06/10 03:07:10;;;;;;;10.48;4.47;;;16.50;96.80;;;;;;6122013;23;20092;-72
2023/06/10 03:09:56;;;;;;;9.15;3.88;;;16.50;96.90;;;;;;6121204;23;20016;-71
2023/06/10 03:12:42;;;;;;;12.68;3.72;;;16.50;97.00;;;;;;6124724;23;20409;-71
2023/06/10 03:15:28;;;;;;;8.57;4.30;;;16.50;97.10;;;;;;6120922;23;20021;-71
2023/06/10 03:18:14;;;;;;;7.47;3.70;;;16.50;97.10;;;;;;6122998;23;20080;-70
2023/06/10 03:21:00;;;;;;;10.73;4.53;;;16.50;97.20;;;;;;6123186;23;20009;-70
2023/06/10 03:23:46;;;;;;;11.02;4.10;;;16.50;97.20;;;;;;6124160;23;20018;-71
2023/06/10 03:26:32;;;;;;;10.25;3.85;;;16.50;97.20;;;;;;6121347;23;20033;-71
2023/06/10 03:29:18;;;;;;;6.97;4.47;;;16.50;97.30;;;;;;6123177;23;20392;-71
2023/06/10 03:32:04;;;;;;;9.75;4.05;;;16.50;97.30;;;;;;6124031;23;20016;-71
2023/06/10 03:34:51;;;;;;;8.82;3.83;;;16.50;97.40;;;;;;6123409;23;20010;-71
2023/06/10 03:37:37;;;;;;;9.95;4.25;;;16.50;97.40;;;;;;6122754;23;20024;-71
2023/06/10 03:40:23;;;;;;;8.68;4.55;;;16.60;97.40;;;;;;6121003;23;20518;-72
2023/06/10 03:43:08;;;;;;;7.55;4.43;;;16.60;97.50;;;;;;6124281;23;20337;-72
2023/06/10 03:45:55;;;;;;;9.30;4.30;;;16.60;97.50;;;;;;6123398;23;20372;-72
2023/06/10 03:48:41;;;;;;;6.80;4.40;;;16.50;97.60;;;;;;6122761;23;20010;-72
2023/06/10 03:51:27;;;;;;;10.50;4.45;;;16.60;97.70;;;;;;6122710;23;20017;-69
2023/06/10 03:54:13;;;;;;;6.35;3.92;;;16.60;97.70;;;;;;6124579;23;20074;-69
2023/06/10 03:56:59;;;;;;;11.20;4.80;;;16.60;97.70;;;;;;6121555;23;20018;-69
2023/06/10 03:59:44;;;;;;;8.70;4.10;;;16.60;97.70;;;;;;6123161;23;20006;-71
2023/06/10 04:02:32;;;;;;;9.13;4.50;;;16.60;97.70;;;;;;6121161;23;20084;-70
2023/06/10 04:05:22;;;;;;;11.38;5.93;;;16.60;97.70;;;;;;6098978;23;20041;-69
2023/06/10 04:08:08;;;;;;;9.13;4.85;;;16.60;97.80;;;;;;6122583;23;20014;-67
2023/06/10 04:10:54;;;;;;;7.22;4.80;;;16.60;97.80;;;;;;6122931;23;20010;-70
2023/06/10 04:13:41;;;;;;;8.35;4.30;;;16.60;97.90;;;;;;6119932;23;20018;-70
2023/06/10 04:16:27;;;;;;;7.25;4.63;;;16.60;97.90;;;;;;6121275;23;20010;-70
2023/06/10 04:19:13;;;;;;;10.65;4.15;;;16.70;98.00;;;;;;6122085;23;20044;-69
2023/06/10 04:22:02;;;;;;;8.43;4.30;;;16.70;98.00;;;;;;6120930;23;20054;-69
2023/06/10 04:24:48;;;;;;;8.18;4.80;;;16.70;98.00;;;;;;6123949;23;20021;-70
2023/06/10 04:27:34;;;;;;;12.07;4.95;;;16.70;98.00;;;;;;6123774;23;20105;-71
2023/06/10 04:30:20;;;;;;;9.13;5.20;;;16.80;98.00;;;;;;6118146;23;20014;-70
2023/06/10 04:33:08;;;;;;;8.00;4.80;;;16.80;98.00;;;;;;6120815;23;20020;-68
2023/06/10 04:35:53;;;;;;;7.50;4.07;;;16.80;98.00;;;;;;6119616;23;20045;-69
2023/06/10 04:38:40;;;;;;;9.25;4.50;;;16.80;97.90;;;;;;6121694;23;20094;-69
2023/06/10 04:41:27;;;;;;;9.75;4.97;;;16.80;98.00;;;;;;6119107;23;20014;-68
2023/06/10 04:44:13;;;;;;;9.00;4.30;;;16.90;98.00;;;;;;6122140;23;20088;-69
2023/06/10 04:46:59;;;;;;;10.52;4.88;;;16.90;98.00;;;;;;6120023;23;20009;-68
2023/06/10 04:49:45;;;;;;;7.03;4.72;;;16.90;98.00;;;;;;6121265;23;20503;-71
2023/06/10 04:52:31;;;;;;;8.63;4.25;;;17.00;98.00;;;;;;6123308;23;20002;-69
2023/06/10 04:55:17;;;;;;;9.45;4.75;;;17.00;98.00;;;;;;6120069;23;20357;-68
2023/06/10 04:58:03;;;;;;;7.95;4.07;;;17.10;98.00;;;;;;6118714;23;20010;-70
2023/06/10 05:00:49;;;;;;;11.90;4.53;;;17.10;98.00;;;;;;6120938;23;20018;-71
2023/06/10 05:03:35;;;;;;;7.50;4.50;;;17.20;98.00;;;;;;6122793;23;20321;-71
2023/06/10 05:06:21;;;;;;;10.07;4.70;;;17.30;97.90;;;;;;6121022;23;20373;-67
2023/06/10 05:09:07;;;;;;;9.10;5.00;;;17.30;97.90;;;;;;6124464;23;20017;-66
2023/06/10 05:11:53;;;;;;;7.32;5.20;;;17.30;97.90;;;;;;6096846;23;20020;-67
2023/06/10 05:14:39;;;;;;;9.82;4.60;;;17.40;97.80;;;;;;6123308;23;20084;-71
2023/06/10 05:17:25;;;;;;;9.60;4.63;;;17.50;97.80;;;;;;6117460;23;20072;-72
2023/06/10 05:20:11;;;;;;;8.70;4.18;;;17.50;97.70;;;;;;6120231;23;20076;-72
2023/06/10 05:22:57;;;;;;;7.78;3.97;;;17.60;97.70;;;;;;6120679;23;20022;-73
2023/06/10 05:25:43;;;;;;;7.43;4.35;;;17.70;97.60;;;;;;6122368;23;20096;-71
2023/06/10 05:28:29;;;;;;;10.32;4.97;;;17.80;97.60;;;;;;6100315;23;20025;-72
2023/06/10 05:31:15;;;;;;;9.52;4.47;;;17.90;97.50;;;;;;6121638;23;20016;-72
2023/06/10 05:34:01;;;;;;;8.60;4.72;;;18.10;97.50;;;;;;6119241;23;20006;-72
2023/06/10 05:36:47;;;;;;;9.18;4.68;;;18.30;97.40;;;;;;6121709;23;20010;-72
2023/06/10 05:39:37;;;;;;;13.02;5.43;;;18.40;97.20;;;;;;6123174;23;20018;-71
2023/06/10 05:42:23;;;;;;;14.18;5.45;;;18.50;97.10;;;;;;6120353;23;20420;-72
2023/06/10 05:45:09;;;;;;;7.45;4.45;;;18.70;96.90;;;;;;6121203;23;20017;-71
2023/06/10 05:47:56;;;;;;;9.20;4.28;;;18.80;96.90;;;;;;6121575;23;20018;-72
2023/06/10 05:50:44;;;;;;;7.07;4.20;;;19.00;96.70;;;;;;6120619;23;20014;-72
2023/06/10 05:53:32;;;;;;;9.30;5.03;;;19.20;96.50;;;;;;6122640;23;20018;-71
2023/06/10 05:56:18;;;;;;;10.15;5.65;;;19.30;96.30;;;;;;6120272;23;20041;-72
2023/06/10 05:59:04;;;;;;;8.68;4.45;;;19.50;96.10;;;;;;6121805;23;20020;-72
2023/06/10 06:01:50;;;;;;;10.02;4.32;;;19.60;95.90;;;;;;6120180;23;20026;-72
2023/06/10 06:04:36;;;;;;;7.85;4.40;;;19.80;95.70;;;;;;6120884;23;20058;-72
2023/06/10 06:07:22;;;;;;;6.50;4.32;;;19.90;95.50;;;;;;6119361;23;20297;-71
2023/06/10 06:10:08;;;;;;;5.90;4.57;;;20.00;95.20;;;;;;6099870;23;20098;-72
2023/06/10 06:12:54;;;;;;;7.13;4.45;;;20.20;95.10;;;;;;6121782;23;20013;-71
2023/06/10 06:15:40;;;;;;;8.60;4.78;;;20.30;94.80;;;;;;6123004;23;20475;-70
2023/06/10 06:18:26;;;;;;;5.82;3.95;;;20.40;94.50;;;;;;6121055;23;20018;-72
2023/06/10 06:21:12;;;;;;;6.70;4.78;;;20.50;94.40;;;;;;6123538;23;20344;-71
2023/06/10 06:23:59;;;;;;;8.80;4.88;;;20.60;94.20;;;;;;6122215;23;20114;-72
2023/06/10 06:26:45;;;;;;;9.27;4.80;;;20.80;94.10;;;;;;6120662;23;20093;-72
2023/06/10 06:29:31;;;;;;;7.43;4.72;;;20.90;93.90;;;;;;6121028;23;20076;-71
2023/06/10 06:32:17;;;;;;;14.73;5.13;;;21.00;93.70;;;;;;6122745;23;20344;-72
2023/06/10 06:35:05;;;;;;;7.80;4.10;;;21.20;93.40;;;;;;6124864;23;20010;-72
2023/06/10 06:37:51;;;;;;;10.52;5.18;;;21.30;93.30;;;;;;6122947;23;20049;-73
2023/06/10 06:40:37;;;;;;;8.30;4.22;;;21.30;93.10;;;;;;6122173;23;20013;-71
2023/06/10 06:43:23;;;;;;;7.13;4.43;;;21.40;92.90;;;;;;6123735;23;20352;-71
2023/06/10 06:46:09;;;;;;;6.43;4.15;;;21.50;92.60;;;;;;6124119;23;20013;-71
2023/06/10 06:48:55;;;;;;;9.98;4.60;;;21.60;92.50;;;;;;6123133;23;20014;-71
2023/06/10 06:51:41;;;;;;;8.23;4.43;;;21.70;92.30;;;;;;6124272;23;20006;-72
2023/06/10 06:54:27;;;;;;;7.53;4.40;;;21.60;92.10;;;;;;6121418;23;20014;-74
2023/06/10 06:57:13;;;;;;;7.53;4.47;;;21.70;92.00;;;;;;6121054;23;20448;-69
2023/06/10 06:59:59;;;;;;;10.35;5.10;;;21.80;91.80;;;;;;6120950;23;20014;-69
2023/06/10 07:02:45;;;;;;;6.35;4.13;;;21.80;91.60;;;;;;6121531;23;20018;-68
2023/06/10 07:05:31;;;;;;;9.35;5.10;;;21.80;91.50;;;;;;6122015;23;20014;-67
2023/06/10 07:08:17;;;;;;;8.20;4.65;;;21.90;91.50;;;;;;6121334;23;20042;-68
2023/06/10 07:11:03;;;;;;;6.30;4.30;;;21.90;91.30;;;;;;6123155;23;20045;-68
2023/06/10 07:13:49;;;;;;;7.22;4.65;;;22.10;91.30;;;;;;6122476;23;20097;-68
2023/06/10 07:16:34;;;;;;;10.57;4.45;;;22.10;91.10;;;;;;6123745;23;20555;-68
2023/06/10 07:19:20;;;;;;;8.35;4.85;;;22.20;91.00;;;;;;6123067;23;20014;-68
2023/06/10 07:22:06;;;;;;;8.05;4.70;;;22.20;90.60;;;;;;6121277;23;20075;-69
2023/06/10 07:24:54;;;;;;;7.03;4.68;;;22.20;90.70;;;;;;6122970;23;20336;-69
2023/06/10 07:27:40;;;;;;;8.50;5.32;;;22.30;90.70;;;;;;6120612;23;20424;-68
2023/06/10 07:30:26;;;;;;;9.77;4.90;;;22.30;90.70;;;;;;6121873;23;20381;-68
2023/06/10 07:33:12;;;;;;;7.18;4.25;;;22.30;90.70;;;;;;6123176;23;20444;-68
2023/06/10 07:35:58;;;;;;;6.22;4.50;;;22.30;90.50;;;;;;6121424;23;20274;-68
2023/06/10 07:38:44;;;;;;;9.43;4.85;;;22.40;90.40;;;;;;6124343;23;20355;-68
2023/06/10 07:41:30;;;;;;;11.50;5.32;;;22.50;90.30;;;;;;6122567;23;20148;-68
2023/06/10 07:44:16;;;;;;;8.60;4.80;;;22.60;90.20;;;;;;6121984;23;20440;-68
2023/06/10 07:47:02;;;;;;;8.90;5.20;;;22.60;90.20;;;;;;6122749;23;20010;-68
2023/06/10 07:49:48;;;;;;;7.85;4.95;;;22.80;90.10;;;;;;6124517;23;20010;-68
2023/06/10 07:52:34;;;;;;;9.52;4.85;;;22.80;89.90;;;;;;6122577;23;20013;-68
2023/06/10 07:55:20;;;;;;;12.07;6.50;;;22.90;89.70;;;;;;6122600;23;20108;-69
2023/06/10 07:58:06;;;;;;;6.90;5.15;;;22.90;89.40;;;;;;6121463;23;20040;-69
2023/06/10 08:07:25;;;;;;;5.78;4.20;;;23.20;89.10;;;;;;6078458;23;20064;-72
2023/06/10 08:10:11;;;;;;;6.70;4.47;;;23.20;88.60;;;;;;6124447;23;20057;-71
2023/06/10 08:12:57;;;;;;;9.98;5.03;;;23.30;88.30;;;;;;6120886;23;20050;-71
2023/06/10 08:15:43;;;;;;;7.07;5.38;;;23.40;88.30;;;;;;6120370;23;20518;-71
2023/06/10 08:18:29;;;;;;;7.72;4.50;;;23.30;87.50;;;;;;6121485;23;20308;-73
2023/06/10 08:21:15;;;;;;;10.05;5.35;;;23.30;87.40;;;;;;6098603;23;20013;-72
2023/06/10 08:24:01;;;;;;;7.50;5.05;;;23.40;87.30;;;;;;6120739;23;20037;-72
2023/06/10 08:26:47;;;;;;;7.40;5.30;;;23.50;87.10;;;;;;6122322;23;20041;-72
2023/06/10 08:29:33;;;;;;;9.65;5.68;;;23.60;87.20;;;;;;6121644;23;20014;-72
2023/06/10 08:32:19;;;;;;;9.05;5.38;;;23.80;86.60;;;;;;6119868;23;20470;-72
2023/06/10 08:35:05;;;;;;;7.28;4.45;;;24.00;86.10;;;;;;6120827;23;20009;-72
2023/06/10 08:37:51;;;;;;;7.38;4.88;;;24.10;86.00;;;;;;6121737;23;20013;-71
2023/06/10 08:40:37;;;;;;;8.10;5.10;;;24.30;85.50;;;;;;6121858;23;20017;-73
2023/06/10 08:43:33;;;;;;;7.75;5.35;;;24.50;84.50;;;;;;6121181;23;20018;-72
2023/06/10 08:46:20;;;;;;;9.10;5.97;;;24.70;83.90;;;;;;6121313;23;20010;-71
2023/06/10 08:49:07;;;;;;;13.70;5.55;;;24.80;83.20;;;;;;6121810;23;20018;-72
2023/06/10 08:51:58;;;;;;;10.05;5.32;;;24.90;83.10;;;;;;6120841;23;20496;-71
2023/06/10 08:54:54;;;;;;;6.82;4.57;;;25.20;82.60;;;;;;6120871;23;20335;-71
2023/06/10 08:57:42;;;;;;;7.32;5.50;;;25.40;81.30;;;;;;6121369;23;20033;-71
2023/06/10 09:00:29;;;;;;;8.02;4.28;;;25.50;80.90;;;;;;6122836;23;20013;-72
2023/06/10 09:03:15;;;;;;;7.18;4.68;;;25.60;80.60;;;;;;6122769;23;20018;-70
2023/06/10 09:06:04;;;;;;;6.13;4.38;;;25.70;80.00;;;;;;6120705;23;20010;-69
2023/06/10 09:08:51;;;;;;;6.30;4.38;;;25.80;80.10;;;;;;6121948;23;20033;-71
2023/06/10 09:11:38;;;;;;;8.43;3.92;;;25.90;79.50;;;;;;6118809;23;20025;-71
2023/06/10 09:14:24;;;;;;;8.40;4.70;;;26.10;79.40;;;;;;6119082;23;20569;-73
2023/06/10 09:17:10;;;;;;;8.50;5.70;;;26.10;79.10;;;;;;6119820;23;20017;-71
2023/06/10 09:19:56;;;;;;;10.30;5.55;;;26.10;78.70;;;;;;6120870;23;20468;-71
2023/06/10 09:22:43;;;;;;;11.73;5.70;;;26.10;77.90;;;;;;6120562;23;20018;-70
2023/06/10 09:25:37;;;;;;;8.43;5.47;;;26.00;77.50;;;;;;6120994;23;20014;-69
2023/06/10 09:28:23;;;;;;;5.97;4.53;;;26.00;77.60;;;;;;6121220;23;20073;-72
2023/06/10 09:31:09;;;;;;;10.77;5.55;;;26.10;77.80;;;;;;6119459;23;20033;-70
2023/06/10 09:34:05;;;;;;;6.82;5.07;;;26.20;77.50;;;;;;6121051;23;20006;-70
2023/06/10 09:36:51;;;;;;;11.30;5.32;;;26.30;76.80;;;;;;6121064;23;20046;-70
2023/06/10 09:39:37;;;;;;;6.55;4.38;;;26.30;76.80;;;;;;6119704;23;20059;-69
2023/06/10 09:42:23;;;;;;;8.13;4.18;;;26.20;77.20;;;;;;6119195;23;20033;-70
2023/06/10 09:45:09;;;;;;;6.22;4.07;;;26.10;76.60;;;;;;6118450;23;20010;-71
2023/06/10 09:47:56;;;;;;;6.78;4.20;;;26.00;76.40;;;;;;6119442;23;20451;-72
2023/06/10 09:50:43;;;;;;;6.53;3.72;;;26.00;76.60;;;;;;6120920;23;20010;-69
2023/06/10 09:53:33;;;;;;;10.63;4.72;;;25.90;76.40;;;;;;6120577;23;20054;-71
2023/06/10 09:56:20;;;;;;;9.80;4.82;;;25.80;76.30;;;;;;6118982;23;20087;-72
2023/06/10 09:59:06;;;;;;;7.10;4.82;;;25.60;76.50;;;;;;6120571;23;20435;-67
2023/06/10 10:01:55;;;;;;;6.05;4.05;;;25.50;76.20;;;;;;6121417;23;20061;-64
2023/06/10 10:04:42;;;;;;;9.38;4.35;;;25.30;76.30;;;;;;6119335;23;20021;-64
2023/06/10 10:07:28;;;;;;;6.65;4.32;;;25.10;76.30;;;;;;6107036;23;20029;-72
2023/06/10 10:10:17;;;;;;;7.57;4.05;;;24.90;76.40;;;;;;6091919;23;20301;-71
2023/06/10 10:13:03;;;;;;;7.70;4.70;;;24.90;76.40;;;;;;6092236;23;20014;-71
2023/06/10 10:15:49;;;;;;;6.30;4.60;;;24.80;76.30;;;;;;6093142;23;20057;-71
2023/06/10 10:18:38;;;;;;;7.82;4.53;;;24.80;76.30;;;;;;6092868;23;20415;-72
2023/06/10 10:21:31;;;;;;;7.45;4.50;;;24.80;76.50;;;;;;6090656;23;20010;-71
2023/06/10 10:24:30;;;;;;;6.95;4.68;;;24.80;76.10;;;;;;6088819;23;20026;-71
2023/06/10 10:27:54;;;;;;;9.70;4.90;;;24.80;75.50;;;;;;6091082;23;20018;-70
2023/06/10 10:30:44;;;;;;;8.82;4.50;;;24.80;75.70;;;;;;6075032;23;20053;-72
2023/06/10 10:34:00;;;;;;;5.88;3.88;;;24.80;75.30;;;;;;6093767;23;20022;-72
2023/06/10 10:36:47;;;;;;;5.93;3.67;;;24.90;74.50;;;;;;6094549;23;20011;-68
2023/06/10 10:39:35;;;;;;;7.30;3.10;;;24.90;73.80;;;;;;6091217;23;20006;-73
2023/06/10 10:42:21;;;;;;;5.20;3.70;;;24.90;73.30;;;;;;6092531;23;20022;-73
2023/06/10 10:45:09;;;;;;;4.65;3.00;;;24.90;72.50;;;;;;6091620;23;20010;-71
2023/06/10 10:47:56;;;;;;;6.80;3.42;;;25.00;70.70;;;;;;6091437;23;20046;-73
2023/06/10 10:50:42;;;;;;;3.85;2.83;;;25.00;70.30;;;;;;6092479;23;20010;-72
2023/06/10 10:53:28;;;;;;;4.05;2.85;;;25.20;69.80;;;;;;6092903;23;20080;-74
2023/06/10 10:56:15;;;;;;;5.25;3.38;;;25.40;70.00;;;;;;6068960;23;20089;-73
2023/06/10 10:59:05;;;;;;;6.15;2.95;;;25.60;68.70;;;;;;6094079;23;20455;-73
2023/06/10 11:01:52;;;;;;;5.88;3.85;;;25.80;68.00;;;;;;6092629;23;20036;-73
2023/06/10 11:04:45;;;;;;;6.60;3.38;;;25.80;68.10;;;;;;6091482;23;20085;-74
2023/06/10 11:07:32;;;;;;;4.40;2.65;;;25.90;66.00;;;;;;6091687;23;20086;-73
2023/06/10 11:10:29;;;;;;;3.75;2.95;;;26.00;66.50;;;;;;6090892;23;20014;-73
2023/06/10 11:13:18;;;;;;;4.13;2.72;;;26.10;66.50;;;;;;6090717;23;20006;-73
2023/06/10 11:16:04;;;;;;;4.20;3.00;;;26.20;65.90;;;;;;6091564;23;20050;-74
2023/06/10 11:18:53;;;;;;;12.63;3.58;;;26.30;65.30;;;;;;6091074;23;20224;-74
2023/06/10 11:22:06;;;;;;;5.43;3.45;;;26.40;64.70;;;;;;6091419;23;20007;-74
2023/06/10 11:24:52;;;;;;;8.27;3.72;;;26.60;65.30;;;;;;6090207;23;20011;-74
2023/06/10 11:27:39;;;;;;;5.18;3.50;;;26.70;65.00;;;;;;6092131;23;20021;-74
2023/06/10 11:30:25;;;;;;;4.13;2.90;;;26.90;65.10;;;;;;6090031;23;20401;-74
2023/06/10 11:33:21;;;;;;;5.32;3.25;;;27.00;64.70;;;;;;6091200;23;20018;-74
2023/06/10 11:36:08;;;;;;;5.35;3.40;;;27.10;64.00;;;;;;6092106;23;20074;-75
2023/06/10 11:38:58;;;;;;;6.20;3.42;;;27.20;63.80;;;;;;6091914;23;20010;-74
2023/06/10 11:41:45;;;;;;;4.65;2.90;;;27.30;63.60;;;;;;6091332;23;20010;-74
2023/06/10 11:44:33;;;;;;;5.72;3.70;;;27.30;63.50;;;;;;6091147;23;20026;-73
2023/06/10 11:47:20;;;;;;;8.13;3.75;;;27.40;63.90;;;;;;6090878;23;20017;-74
2023/06/10 11:50:06;;;;;;;4.47;3.15;;;27.50;63.50;;;;;;6091570;23;20455;-74
2023/06/10 11:52:52;;;;;;;4.18;3.08;;;27.50;63.20;;;;;;6093686;23;20045;-72
2023/06/10 11:55:50;;;;;;;6.13;3.70;;;27.50;62.70;;;;;;6088930;23;20042;-74
2023/06/10 11:58:36;;;;;;;6.40;4.13;;;27.50;62.30;;;;;;6091190;23;20713;-72
2023/06/10 12:01:23;;;;;;;5.03;3.58;;;27.50;62.30;;;;;;6093631;23;20332;-74
2023/06/10 12:04:10;;;;;;;5.05;3.63;;;27.50;62.40;;;;;;6090572;23;20026;-74
2023/06/10 12:06:56;;;;;;;4.55;3.65;;;27.40;63.40;;;;;;6100458;23;20447;-74
2023/06/10 12:09:42;;;;;;;4.70;3.45;;;27.40;63.80;;;;;;6119631;23;20065;-73
2023/06/10 12:12:29;;;;;;;7.07;3.72;;;27.40;63.70;;;;;;6118596;23;20474;-72
2023/06/10 12:15:24;;;;;;;4.50;3.15;;;27.40;63.20;;;;;;6117157;23;20017;-71
2023/06/10 12:18:23;;;;;;;7.80;3.55;;;27.40;63.10;;;;;;6122705;23;20060;-73
2023/06/10 12:21:20;;;;;;;5.45;3.75;;;27.30;62.90;;;;;;6141920;23;20014;-74
2023/06/10 12:24:11;;;;;;;5.28;3.63;;;27.40;62.10;;;;;;6120956;23;20018;-73
2023/06/10 12:26:57;;;;;;;5.50;3.75;;;27.40;62.50;;;;;;6122250;23;20017;-73
2023/06/10 12:29:53;;;;;;;7.05;4.30;;;27.40;63.30;;;;;;6119447;23;20013;-73
2023/06/10 12:32:43;;;;;;;4.57;3.80;;;27.50;63.70;;;;;;6118454;23;20130;-73
2023/06/10 12:35:30;;;;;;;5.28;3.97;;;27.50;63.70;;;;;;6121293;23;20041;-74
2023/06/10 12:38:24;;;;;;;5.97;4.18;;;27.50;63.90;;;;;;6120801;23;20010;-73
2023/06/10 12:41:11;;;;;;;5.90;4.25;;;27.60;64.40;;;;;;6121247;23;20014;-74
2023/06/10 12:43:57;;;;;;;7.30;4.70;;;27.70;64.40;;;;;;6119350;23;20026;-72
2023/06/10 12:46:43;;;;;;;7.75;4.50;;;27.80;64.40;;;;;;6119301;23;20715;-74
2023/06/10 12:49:29;;;;;;;6.82;5.28;;;27.90;64.50;;;;;;6119447;23;20006;-72
2023/06/10 12:52:15;;;;;;;6.15;4.85;;;28.00;64.60;;;;;;6117439;23;20013;-73
2023/06/10 12:55:01;;;;;;;5.55;4.65;;;28.10;64.90;;;;;;6119128;23;20034;-71
2023/06/10 12:57:51;;;;;;;10.38;5.25;;;28.20;65.20;;;;;;6119671;23;20018;-74
2023/06/10 13:00:37;;;;;;;10.18;5.38;;;28.20;64.60;;;;;;6116198;23;20434;-72
2023/06/10 13:03:23;;;;;;;5.97;4.53;;;28.40;65.00;;;;;;6118473;23;20028;-73
2023/06/10 13:06:09;;;;;;;8.13;5.18;;;28.40;64.80;;;;;;6121301;23;20084;-74
2023/06/10 13:08:55;;;;;;;8.00;6.60;;;28.40;64.60;;;;;;6117810;23;20026;-72
2023/06/10 13:11:42;;;;;;;8.52;5.30;;;28.40;64.80;;;;;;6118638;23;20010;-75
2023/06/10 13:14:28;;;;;;;6.80;5.63;;;28.30;64.70;;;;;;6121546;23;20017;-72
2023/06/10 13:17:14;;;;;;;5.43;4.53;;;28.40;64.60;;;;;;6119155;23;20038;-71
2023/06/10 13:20:00;;;;;;;8.50;4.93;;;28.50;64.80;;;;;;6117856;23;20425;-73
2023/06/10 13:22:47;;;;;;;5.88;4.65;;;28.60;64.30;;;;;;6117287;23;20024;-72
2023/06/10 13:25:33;;;;;;;7.38;5.35;;;28.70;64.30;;;;;;6118385;23;20013;-74
2023/06/10 13:28:19;;;;;;;6.38;4.70;;;28.90;64.30;;;;;;6117955;23;20014;-73
2023/06/10 13:31:05;;;;;;;7.07;5.07;;;28.90;64.10;;;;;;6122578;23;20089;-72
2023/06/10 13:33:51;;;;;;;7.63;5.90;;;28.90;64.30;;;;;;6119895;23;20101;-72
2023/06/10 13:36:37;;;;;;;7.10;4.72;;;29.00;64.40;;;;;;6118772;23;20006;-73
2023/06/10 13:39:23;;;;;;;6.55;4.70;;;29.10;63.80;;;;;;6118709;23;20029;-73
2023/06/10 13:42:09;;;;;;;8.15;5.32;;;29.00;62.60;;;;;;6138556;23;20025;-72
2023/06/10 13:44:56;;;;;;;7.38;5.20;;;28.80;62.80;;;;;;6121056;23;20359;-71
2023/06/10 13:47:42;;;;;;;6.22;4.50;;;28.70;63.30;;;;;;6119150;23;20076;-73
2023/06/10 13:50:28;;;;;;;13.07;5.10;;;28.90;63.50;;;;;;6120182;23;20042;-74
2023/06/10 13:53:14;;;;;;;6.68;4.53;;;29.10;63.60;;;;;;6119908;23;20502;-72
2023/06/10 13:56:00;;;;;;;6.32;4.60;;;29.10;63.80;;;;;;6121183;23;20502;-74
2023/06/10 13:58:46;;;;;;;5.80;4.38;;;29.00;63.80;;;;;;6120473;23;20195;-73
2023/06/10 14:01:32;;;;;;;8.18;5.15;;;28.90;63.70;;;;;;6121034;23;20016;-73
2023/06/10 14:04:18;;;;;;;6.40;4.53;;;28.80;63.50;;;;;;6119528;23;20010;-72
2023/06/10 14:07:04;;;;;;;36.97;6.72;;;28.80;63.60;;;;;;6121370;23;20351;-73
2023/06/10 14:09:51;;;;;;;5.95;4.32;;;28.80;63.50;;;;;;6120582;23;20219;-73
2023/06/10 14:12:37;;;;;;;6.95;4.95;;;28.70;63.40;;;;;;6119895;23;20077;-72
2023/06/10 14:15:23;;;;;;;5.47;4.35;;;28.60;62.40;;;;;;6120053;23;20089;-75
2023/06/10 14:18:10;;;;;;;6.32;4.88;;;28.50;61.80;;;;;;6121001;23;20028;-73
2023/06/10 14:20:56;;;;;;;5.85;4.50;;;28.60;62.00;;;;;;6123391;23;20045;-74
2023/06/10 14:23:43;;;;;;;8.15;4.32;;;28.70;61.20;;;;;;6122154;23;20021;-73
2023/06/10 14:26:29;;;;;;;4.95;4.20;;;28.70;60.80;;;;;;6121025;23;20368;-73
2023/06/10 14:29:15;;;;;;;5.63;4.15;;;28.80;60.60;;;;;;6138978;23;20456;-74
2023/06/10 14:32:01;;;;;;;4.90;3.30;;;29.00;60.40;;;;;;6120478;23;20021;-74
2023/06/10 14:34:47;;;;;;;8.68;3.92;;;29.10;59.90;;;;;;6120233;23;20010;-71
2023/06/10 14:37:33;;;;;;;5.80;4.07;;;29.20;59.70;;;;;;6120098;23;20463;-72